Flight Track Log - Related Links

Times and Time Zones

All times are in EDT time to prevent confusion due to time zone crossing. See the SAS617 flight status page for this flight to view local times or setup timezone preferences in your user account.

Time Position Orientation Groundspeed Altitude Reporting Facility
EDT Latitude Longitude Course Direction KTS MPH feet Rate Location/Type
Thu 11:33:00 AM 55.3185 12.3957 206° Southwest  Level Estimated
Thu 11:34:00 AM 55.2186 12.3098 206° Southwest  Level Estimated
Thu 11:35:00 AM 55.1186 12.2243 206° Southwest  Level Estimated
Thu 11:36:00 AM 55.0186 12.1392 206° Southwest  Level Estimated
Thu 11:37:00 AM 54.9185 12.0546 206° Southwest  Level Estimated
Thu 11:38:00 AM 54.8183 11.9704 206° Southwest  Level Estimated
Thu 11:39:00 AM 54.7181 11.8867 206° Southwest  Level Estimated
Thu 11:40:00 AM 54.6178 11.8033 206° Southwest  Level Estimated
Thu 11:41:00 AM 54.5175 11.7203 206° Southwest  Level Estimated
Thu 11:42:00 AM 54.4171 11.6378 206° Southwest  Level Estimated
Thu 11:43:00 AM 54.3167 11.5556 206° Southwest  Level Estimated
Thu 11:44:00 AM 54.2162 11.4739 205° Southwest  Level Estimated
Thu 11:45:00 AM 54.1156 11.3925 205° Southwest  Level Estimated
Thu 11:46:00 AM 54.0150 11.3116 205° Southwest  Level Estimated
Thu 11:47:00 AM 53.9143 11.2310 205° Southwest  Level Estimated
Thu 11:48:00 AM 53.8136 11.1508 205° Southwest  Level Estimated
Thu 11:49:00 AM 53.7129 11.0710 205° Southwest  Level Estimated
Thu 11:50:00 AM 53.6120 10.9916 205° Southwest  Level Estimated
Thu 11:51:00 AM 53.5112 10.9126 205° Southwest  Level Estimated
Thu 11:52:00 AM 53.4102 10.8339 205° Southwest  Level Estimated
Thu 11:53:00 AM 53.3093 10.7556 205° Southwest  Level Estimated
Thu 11:54:00 AM 53.2082 10.6777 205° Southwest  Level Estimated
Thu 11:55:00 AM 53.1072 10.6002 205° Southwest  Level Estimated
Thu 11:56:00 AM 53.0060 10.5230 205° Southwest  Level Estimated
Thu 11:57:00 AM 52.9048 10.4462 205° Southwest  Level Estimated
Thu 11:58:00 AM 52.8036 10.3697 205° Southwest  Level Estimated
Thu 11:59:00 AM 52.7023 10.2936 204° Southwest  Level Estimated
Thu 12:00:00 PM 52.6010 10.2178 204° Southwest  Level Estimated
Thu 12:01:00 PM 52.4996 10.1424 204° Southwest  Level Estimated
Thu 12:02:00 PM 52.3982 10.0674 204° Southwest  Level Estimated
Thu 12:03:00 PM 52.2967 9.9926 204° Southwest  Level Estimated
Thu 12:04:00 PM 52.1952 9.9183 204° Southwest  Level Estimated
Thu 12:05:00 PM 52.0937 9.8442 204° Southwest  Level Estimated
Thu 12:06:00 PM 51.9921 9.7705 204° Southwest  Level Estimated
Thu 12:07:00 PM 51.8904 9.6971 204° Southwest  Level Estimated
Thu 12:08:00 PM 51.7887 9.6241 204° Southwest  Level Estimated
Thu 12:09:00 PM 51.6870 9.5514 204° Southwest  Level Estimated
Thu 12:10:00 PM 51.5852 9.4790 204° Southwest  Level Estimated
Thu 12:11:00 PM 51.4833 9.4070 204° Southwest  Level Estimated
Thu 12:12:00 PM 51.3815 9.3352 204° Southwest  Level Estimated
Thu 12:13:00 PM 51.2795 9.2638 204° Southwest  Level Estimated
Thu 12:14:00 PM 51.1776 9.1927 204° Southwest  Level Estimated
Thu 12:15:00 PM 51.0756 9.1219 204° Southwest  Level Estimated
Thu 12:16:00 PM 50.9735 9.0514 204° Southwest  Level Estimated
Thu 12:17:00 PM 50.8714 8.9813 203° Southwest  Level Estimated
Thu 12:18:00 PM 50.7693 8.9114 203° Southwest  Level Estimated
Thu 12:19:00 PM 50.6671 8.8419 203° Southwest  Level Estimated
Thu 12:20:00 PM 50.5649 8.7726 203° Southwest  Level Estimated
Thu 12:21:00 PM 50.4626 8.7037 203° Southwest  Level Estimated
Thu 12:22:00 PM 50.3603 8.6350 203° Southwest  Level Estimated
Thu 12:23:00 PM 50.2580 8.5667 203° Southwest  Level Estimated
Thu 12:24:00 PM 50.1556 8.4986 203° Southwest  Level Estimated
Thu 12:25:00 PM 50.0532 8.4308 203° Southwest  Level Estimated
Thu 12:26:00 PM 49.9507 8.3633 203° Southwest  Level Estimated
Thu 12:27:00 PM 49.8482 8.2961 203° Southwest  Level Estimated
Thu 12:28:00 PM 49.7457 8.2292 203° Southwest  Level Estimated
Thu 12:29:00 PM 49.6431 8.1626 203° Southwest  Level Estimated
Thu 12:30:00 PM 49.5405 8.0962 203° Southwest  Level Estimated
Thu 12:31:00 PM 49.4379 8.0301 203° Southwest  Level Estimated
Thu 12:32:00 PM 49.3352 7.9643 203° Southwest  Level Estimated
Thu 12:33:00 PM 49.2325 7.8988 203° Southwest  Level Estimated
Thu 12:34:00 PM 49.1297 7.8336 203° Southwest  Level Estimated
Thu 12:35:00 PM 49.0269 7.7686 203° Southwest  Level Estimated
Thu 12:36:00 PM 48.9241 7.7039 202° Southwest  Level Estimated
Thu 12:37:00 PM 48.8212 7.6394 202° Southwest  Level Estimated
Thu 12:38:00 PM 48.7111 7.5708 202° Southwest  Level Estimated
Thu 12:39:00 PM 48.6010 7.5024 202° Southwest  Level Estimated
Thu 12:40:00 PM 48.4908 7.4344 202° Southwest  Level Estimated
Thu 12:41:00 PM 48.3806 7.3666 202° Southwest  Level Estimated
Thu 12:42:00 PM 48.2704 7.2991 202° Southwest  Level Estimated
Thu 12:43:00 PM 48.1601 7.2319 202° Southwest  Level Estimated
Thu 12:44:00 PM 48.0498 7.1651 202° Southwest  Level Estimated
Thu 12:45:00 PM 47.9394 7.0985 202° Southwest  Level Estimated
Thu 12:46:00 PM 47.8290 7.0321 202° Southwest  Level Estimated
Thu 12:47:00 PM 47.7186 6.9661 202° Southwest  Level Estimated
Thu 12:48:00 PM 47.6081 6.9003 202° Southwest  Level Estimated
Thu 12:49:00 PM 47.4976 6.8348 202° Southwest  Level Estimated
Thu 12:50:00 PM 47.3870 6.7696 202° Southwest  Level Estimated
Thu 12:51:00 PM 47.2764 6.7047 202° Southwest  Level Estimated
Thu 12:52:00 PM 47.1658 6.6400 202° Southwest  Level Estimated
Thu 12:53:00 PM 47.0551 6.5757 202° Southwest  Level Estimated
Thu 12:54:00 PM 46.9444 6.5115 202° Southwest  Level Estimated
Thu 12:55:00 PM 46.8337 6.4477 202° Southwest  Level Estimated
Thu 12:56:00 PM 46.7229 6.3841 201° Southwest  Level Estimated
Thu 12:57:00 PM 46.6121 6.3207 201° Southwest  Level Estimated
Thu 12:58:00 PM 46.5013 6.2576 201° Southwest  Level Estimated
Thu 12:59:00 PM 46.3904 6.1948 201° Southwest  Level Estimated
Thu 01:00:00 PM 46.2795 6.1323 201° Southwest  Level Estimated
Thu 01:01:00 PM 46.2381 6.1090 201° Southwest  Level Estimated
Thu 01:02:00 PM 46.2381 6.1090 North  Level Estimated
Thu 01:03:00 PM 46.2381 6.1090 North  Level Estimated
Thu 01:04:00 PM 46.2381 6.1090 North  Level Estimated
Thu 01:05:00 PM 46.2381 6.1090 North  Level Estimated
Thu 01:06:00 PM 46.2381 6.1090 North  Level Estimated
Thu 01:07:00 PM 46.2381 6.1090 North  Level Estimated
Thu 01:08:00 PM 46.2381 6.1090 North  Level Estimated
Thu 01:09:00 PM 46.2381 6.1090 North  Level Estimated
Thu 01:10:00 PM 46.2381 6.1090 North  Level Estimated
Thu 01:11:00 PM 46.2381 6.1090 North  Level Estimated
Thu 01:12:00 PM 46.2381 6.1090 North  Level Estimated

Login

Don't have an account? Register now (free) for customized features, flight alerts, and more!